Time;durP1;ratioP1;P1;durP2;ratioP2;P2;SDS_P1;SDS_P2;PMS_P1;PMS_P2;Temp;Humidity;BMP_temperature;BMP_pressure;BME280_temperature;BME280_humidity;BME280_pressure;Samples;Min_cycle;Max_cycle;Signal;HPM_P1;HPM_P2
2022/06/26 00:01:00;;;;;;;0.10;0.10;;;;;;;24.49;67.35;100069.03;4996114;28;20432;-73
2022/06/26 00:03:26;;;;;;;0.10;0.10;;;;;;;24.44;67.17;100066.78;4995775;28;20125;-73
2022/06/26 00:05:53;;;;;;;0.10;0.10;;;;;;;24.48;66.79;100081.69;4995897;28;20057;-74
2022/06/26 00:08:18;;;;;;;0.10;0.10;;;;;;;24.43;66.94;100068.03;4996346;28;20112;-73
2022/06/26 00:10:46;;;;;;;0.10;0.10;;;;;;;24.28;67.25;100049.88;4996127;28;20536;-73
2022/06/26 00:13:12;;;;;;;0.10;0.10;;;;;;;24.41;66.93;100072.63;4995959;28;20025;-73
2022/06/26 00:15:40;;;;;;;0.10;0.10;;;;;;;24.39;67.26;100063.75;4996021;28;20535;-73
2022/06/26 00:18:05;;;;;;;0.20;0.20;;;;;;;24.46;66.61;100072.81;4996266;28;20116;-74
2022/06/26 00:20:31;;;;;;;0.10;0.10;;;;;;;24.36;66.98;100059.00;4991996;28;20453;-74
2022/06/26 00:22:57;;;;;;;0.10;0.10;;;;;;;24.41;66.77;100064.88;4992423;28;20038;-75
2022/06/26 00:25:23;;;;;;;0.10;0.10;;;;;;;24.41;66.90;100070.56;4992714;28;20034;-74
2022/06/26 00:27:49;;;;;;;0.10;0.10;;;;;;;24.39;66.98;100073.06;4994666;28;20469;-74
2022/06/26 00:30:15;;;;;;;0.10;0.10;;;;;;;24.37;66.97;100075.59;4996565;28;20458;-74
2022/06/26 00:32:41;;;;;;;0.10;0.10;;;;;;;24.39;66.15;100073.06;4996544;28;20120;-74
2022/06/26 00:35:07;;;;;;;0.10;0.10;;;;;;;24.38;66.28;100074.31;4996226;28;20507;-74
2022/06/26 00:37:32;;;;;;;0.10;0.10;;;;;;;24.28;66.31;100079.09;4998003;28;20033;-75
2022/06/26 00:39:58;;;;;;;0.10;0.10;;;;;;;24.23;66.29;100067.50;4996383;28;20034;-74
2022/06/26 00:42:23;;;;;;;0.10;0.10;;;;;;;24.18;66.50;100065.25;4996160;28;20386;-75
2022/06/26 00:44:55;;;;;;;0.10;0.10;;;;;;;24.16;66.67;100056.41;4996588;28;20037;-74
2022/06/26 00:47:24;;;;;;;0.10;0.10;;;;;;;24.22;66.50;100054.56;4997993;28;20023;-74
2022/06/26 00:49:50;;;;;;;0.10;0.10;;;;;;;24.27;66.43;100059.66;4997037;28;20051;-73
2022/06/26 00:52:18;;;;;;;0.10;0.10;;;;;;;24.00;66.53;100040.31;4996515;28;20381;-74
2022/06/26 00:54:45;;;;;;;0.10;0.10;;;;;;;24.01;67.19;100058.94;4979896;28;20508;-74
2022/06/26 00:57:12;;;;;;;0.20;0.20;;;;;;;23.98;67.50;100049.28;4996445;28;20030;-74
2022/06/26 00:59:38;;;;;;;0.10;0.10;;;;;;;23.97;66.76;100064.75;4997450;28;20033;-74
2022/06/26 01:02:04;;;;;;;0.10;0.10;;;;;;;24.10;66.50;100058.25;4996317;28;20026;-74
2022/06/26 01:04:29;;;;;;;0.10;0.10;;;;;;;24.10;65.67;100056.19;4995784;28;20039;-74
2022/06/26 01:06:55;;;;;;;0.10;0.10;;;;;;;23.89;65.97;100056.94;4995737;28;20027;-74
2022/06/26 01:09:21;;;;;;;0.10;0.10;;;;;;;23.85;66.86;100050.56;4996184;28;20030;-74
2022/06/26 01:11:47;;;;;;;0.10;0.10;;;;;;;23.85;67.12;100045.66;4995830;28;20100;-73
2022/06/26 01:14:13;;;;;;;0.10;0.10;;;;;;;23.89;66.76;100057.72;4995605;28;20097;-74
2022/06/26 01:16:43;;;;;;;0.10;0.10;;;;;;;23.79;66.83;100042.63;4995543;28;20092;-74
2022/06/26 01:19:09;;;;;;;0.10;0.10;;;;;;;23.86;66.74;100046.47;4995413;28;20054;-74
2022/06/26 01:21:36;;;;;;;0.20;0.20;;;;;;;23.81;66.29;100044.19;4995408;28;20030;-74
2022/06/26 01:24:02;;;;;;;0.10;0.10;;;;;;;23.60;66.03;100014.47;4995922;28;20038;-74
2022/06/26 01:26:29;;;;;;;0.15;0.15;;;;;;;23.73;65.74;100043.66;4995588;28;20545;-75
2022/06/26 01:28:54;;;;;;;0.10;0.10;;;;;;;23.75;65.50;100046.81;4995611;28;20129;-74
2022/06/26 01:31:22;;;;;;;0.20;0.20;;;;;;;23.70;65.42;100045.38;4995334;28;20121;-74
2022/06/26 01:33:49;;;;;;;0.10;0.10;;;;;;;23.72;65.78;100047.75;4995320;28;20121;-75
2022/06/26 01:36:15;;;;;;;0.17;0.17;;;;;;;23.76;65.16;100048.44;4995203;28;20022;-74
2022/06/26 01:38:41;;;;;;;0.20;0.20;;;;;;;23.71;64.38;100051.84;4994018;28;20035;-73
2022/06/26 01:41:07;;;;;;;0.10;0.10;;;;;;;23.62;64.57;100054.56;4995061;28;20081;-73
2022/06/26 01:43:36;;;;;;;0.10;0.10;;;;;;;23.50;65.14;100045.59;4994951;28;20034;-73
2022/06/26 01:46:03;;;;;;;0.20;0.20;;;;;;;23.49;65.45;100044.00;4995168;28;20030;-73
2022/06/26 01:48:30;;;;;;;0.20;0.20;;;;;;;23.58;64.61;100042.50;4995143;28;20141;-73
2022/06/26 01:50:57;;;;;;;0.15;0.15;;;;;;;23.61;64.38;100044.44;4995339;28;20026;-74
2022/06/26 01:53:24;;;;;;;0.20;0.20;;;;;;;23.59;64.61;100044.88;4994828;28;20489;-74
2022/06/26 01:55:49;;;;;;;0.20;0.20;;;;;;;23.57;64.94;100043.75;4994813;28;20030;-73
2022/06/26 01:58:15;;;;;;;0.10;0.10;;;;;;;23.60;64.88;100032.28;4994699;28;20088;-73
2022/06/26 02:00:43;;;;;;;0.10;0.10;;;;;;;23.56;64.34;100039.34;4995231;28;20034;-73
2022/06/26 02:03:09;;;;;;;0.10;0.10;;;;;;;23.57;63.66;100035.25;4994641;28;20126;-74
2022/06/26 02:05:35;;;;;;;0.10;0.10;;;;;;;23.57;63.84;100041.72;4995383;28;20113;-73
2022/06/26 02:08:02;;;;;;;0.13;0.13;;;;;;;23.51;63.50;100044.34;4994561;28;20045;-74
2022/06/26 02:15:59;;;;;;;0.20;0.20;;;;;;;23.53;63.42;100018.31;4996000;28;20114;-74
2022/06/26 02:18:25;;;;;;;0.10;0.10;;;;;;;23.44;63.33;99989.84;4995799;28;20076;-74
2022/06/26 02:20:51;;;;;;;0.17;0.17;;;;;;;23.56;63.38;100014.56;4997496;28;20112;-74
2022/06/26 02:23:17;;;;;;;0.10;0.10;;;;;;;23.52;62.95;100011.84;4997700;28;20362;-73
2022/06/26 02:25:43;;;;;;;0.10;0.10;;;;;;;23.53;62.59;100035.34;4997173;28;20041;-73
2022/06/26 02:28:09;;;;;;;0.20;0.20;;;;;;;23.56;62.61;100045.81;4997524;28;20041;-74
2022/06/26 02:30:35;;;;;;;0.20;0.20;;;;;;;23.43;62.91;100054.31;4997840;28;20030;-74
2022/06/26 02:33:01;;;;;;;0.20;0.20;;;;;;;23.42;62.79;100046.25;4997346;28;20176;-75
2022/06/26 02:35:28;;;;;;;0.20;0.20;;;;;;;23.34;62.81;100045.69;4997738;28;20030;-74
2022/06/26 02:37:54;;;;;;;0.20;0.20;;;;;;;23.32;63.09;100036.03;5015152;28;20034;-74
2022/06/26 02:40:22;;;;;;;0.10;0.10;;;;;;;23.30;63.56;100036.50;4997218;28;20037;-74
2022/06/26 02:42:48;;;;;;;0.20;0.20;;;;;;;23.32;63.85;100048.19;4997397;28;20033;-73
2022/06/26 02:45:13;;;;;;;0.20;0.20;;;;;;;23.36;64.00;100039.56;4997347;28;20519;-74
2022/06/26 02:47:42;;;;;;;0.20;0.20;;;;;;;23.34;63.04;100051.38;4997317;28;20026;-73
2022/06/26 02:50:09;;;;;;;0.20;0.20;;;;;;;23.30;61.94;100053.53;4997315;28;20464;-73
2022/06/26 02:52:35;;;;;;;0.10;0.10;;;;;;;23.25;62.29;100060.56;4996553;28;20022;-74
2022/06/26 02:55:00;;;;;;;0.20;0.20;;;;;;;23.17;62.50;100055.53;4996840;28;20029;-73
2022/06/26 02:57:27;;;;;;;0.20;0.20;;;;;;;23.19;62.11;100053.06;4997180;28;20044;-75
2022/06/26 02:59:52;;;;;;;0.10;0.10;;;;;;;23.31;61.76;100063.63;4996888;28;20022;-73
2022/06/26 03:02:18;;;;;;;0.20;0.20;;;;;;;23.31;61.63;100057.94;4997108;28;20088;-73
2022/06/26 03:04:45;;;;;;;0.10;0.10;;;;;;;23.20;61.78;100063.16;4997522;28;20026;-74
2022/06/26 03:07:10;;;;;;;0.10;0.10;;;;;;;23.23;61.79;100065.13;4996751;28;20041;-72
2022/06/26 03:09:36;;;;;;;0.20;0.20;;;;;;;23.20;62.15;100054.66;4996928;28;20030;-73
2022/06/26 03:12:02;;;;;;;0.10;0.10;;;;;;;23.19;62.49;100058.75;4996536;28;20157;-74
2022/06/26 03:14:27;;;;;;;0.10;0.10;;;;;;;23.18;63.00;100054.31;4997065;28;20132;-72
2022/06/26 03:16:53;;;;;;;0.20;0.20;;;;;;;23.32;61.84;100056.69;4997251;28;20030;-76
2022/06/26 03:19:24;;;;;;;0.20;0.20;;;;;;;23.29;61.96;100054.78;4992915;28;20061;-73
2022/06/26 03:21:49;;;;;;;0.20;0.20;;;;;;;23.27;62.07;100057.25;4994851;28;20434;-75
2022/06/26 03:24:18;;;;;;;0.20;0.20;;;;;;;23.30;62.15;100058.41;4994190;28;20105;-72
2022/06/26 03:26:43;;;;;;;0.10;0.10;;;;;;;23.31;62.25;100055.13;4993355;28;20042;-73
2022/06/26 03:29:10;;;;;;;0.20;0.20;;;;;;;23.30;62.62;100061.25;4993516;28;20035;-74
2022/06/26 03:31:36;;;;;;;0.20;0.20;;;;;;;23.27;62.57;100055.22;4993187;28;20026;-73
2022/06/26 03:34:03;;;;;;;0.20;0.20;;;;;;;23.33;62.64;100055.47;4993512;28;20398;-73
2022/06/26 03:36:29;;;;;;;0.20;0.20;;;;;;;;;;4993075;28;20034;-73
2022/06/26 03:38:55;;;;;;;0.10;0.10;;;;;;;23.34;62.27;100048.53;4993507;28;20035;-73
2022/06/26 03:41:21;;;;;;;0.10;0.10;;;;;;;23.40;62.39;100055.25;4993951;28;20069;-74
2022/06/26 03:43:47;;;;;;;0.20;0.20;;;;;;;23.41;62.05;100059.66;4994189;28;20058;-74
2022/06/26 03:46:14;;;;;;;0.13;0.13;;;;;;;23.46;62.36;100064.78;4993109;28;20037;-74
2022/06/26 03:48:42;;;;;;;0.10;0.10;;;;;;;23.51;62.43;100052.84;4993375;28;20375;-74
2022/06/26 03:51:08;;;;;;;0.10;0.10;;;;;;;23.49;62.36;100054.56;4992991;28;20023;-74
2022/06/26 03:53:34;;;;;;;0.20;0.20;;;;;;;23.52;62.46;100051.59;4993320;28;20034;-74
2022/06/26 03:56:01;;;;;;;0.10;0.10;;;;;;;23.59;62.21;100056.25;4992737;28;20031;-73
2022/06/26 03:58:26;;;;;;;0.10;0.10;;;;;;;23.71;61.33;100057.53;4992757;28;20045;-74
2022/06/26 04:00:53;;;;;;;0.10;0.10;;;;;;;23.78;61.71;100043.09;4992846;28;20031;-74
2022/06/26 04:03:20;;;;;;;0.10;0.10;;;;;;;23.87;61.08;100026.13;4992088;28;20038;-73
2022/06/26 04:05:45;;;;;;;0.20;0.20;;;;;;;24.18;59.96;100056.72;4992902;28;20030;-74
2022/06/26 04:08:11;;;;;;;0.10;0.10;;;;;;;24.40;58.94;100063.31;4992982;28;20429;-73
2022/06/26 04:10:37;;;;;;;0.10;0.10;;;;;;;24.55;57.56;100055.84;4992504;28;20546;-73
2022/06/26 04:13:08;;;;;;;0.13;0.13;;;;;;;24.83;56.91;100061.72;4992978;28;20058;-74
2022/06/26 04:15:35;;;;;;;0.20;0.20;;;;;;;25.13;55.37;100053.69;4992496;28;20122;-74
2022/06/26 04:18:01;;;;;;;0.20;0.20;;;;;;;25.38;54.32;100062.06;4992364;28;20038;-74
2022/06/26 04:20:27;;;;;;;0.20;0.20;;;;;;;25.64;53.42;100056.16;4992309;28;20152;-73
2022/06/26 04:22:57;;;;;;;0.17;0.17;;;;;;;25.93;52.74;100062.25;4992417;28;20074;-73
2022/06/26 04:25:23;;;;;;;0.10;0.10;;;;;;;26.26;52.09;100067.38;4993052;28;20465;-74
2022/06/26 04:27:50;;;;;;;0.20;0.20;;;;;;;26.57;51.19;100070.13;4992858;28;20041;-73
2022/06/26 04:30:15;;;;;;;0.20;0.20;;;;;;;26.97;50.31;100080.56;4991993;28;20121;-73
2022/06/26 04:32:41;;;;;;;0.17;0.17;;;;;;;27.40;49.19;100085.06;4992316;28;20137;-75
2022/06/26 04:35:09;;;;;;;0.10;0.10;;;;;;;27.64;47.96;100060.19;4992270;28;20030;-74
2022/06/26 04:37:35;;;;;;;0.20;0.20;;;;;;;28.13;47.01;100084.72;4993911;28;20082;-74
2022/06/26 04:40:01;;;;;;;0.20;0.20;;;;;;;28.18;46.36;100086.13;4992310;28;20034;-75
2022/06/26 04:42:29;;;;;;;0.10;0.10;;;;;;;28.50;45.88;100084.50;4992510;28;20161;-74
2022/06/26 04:44:57;;;;;;;0.10;0.10;;;;;;;28.79;44.82;100094.41;4991922;28;20069;-74
2022/06/26 04:47:23;;;;;;;0.20;0.20;;;;;;;28.94;44.86;100100.97;4992190;28;20073;-74
2022/06/26 04:49:48;;;;;;;0.10;0.10;;;;;;;29.18;44.36;100093.06;4992185;28;20055;-73
2022/06/26 04:52:15;;;;;;;0.10;0.10;;;;;;;29.39;44.21;100108.28;4992039;28;20031;-73
2022/06/26 04:54:42;;;;;;;0.15;0.15;;;;;;;29.68;43.80;100100.97;4992215;28;20038;-75
2022/06/26 04:57:11;;;;;;;0.10;0.10;;;;;;;30.05;43.06;100103.34;4992035;28;20030;-73
2022/06/26 04:59:36;;;;;;;0.10;0.10;;;;;;;30.19;42.26;100105.41;4991936;28;20026;-73
2022/06/26 05:02:03;;;;;;;0.10;0.10;;;;;;;30.50;41.60;100107.63;4992747;28;20022;-74
2022/06/26 05:04:28;;;;;;;0.10;0.10;;;;;;;30.39;42.07;100107.50;4992262;28;20034;-73
2022/06/26 05:06:54;;;;;;;0.10;0.10;;;;;;;30.70;42.36;100112.59;4992015;28;20100;-74
2022/06/26 05:09:21;;;;;;;0.10;0.10;;;;;;;30.24;43.66;100113.28;4992010;28;20042;-72
2022/06/26 05:11:46;;;;;;;0.10;0.10;;;;;;;30.91;42.57;100114.16;4991885;28;20026;-73
2022/06/26 05:14:14;;;;;;;0.10;0.10;;;;;;;31.25;42.69;100114.47;4994794;28;20153;-73
2022/06/26 05:16:40;;;;;;;0.10;0.10;;;;;;;31.28;43.45;100114.28;4996044;28;20106;-73
2022/06/26 05:19:05;;;;;;;0.20;0.20;;;;;;;31.67;43.79;100116.69;4995119;28;20482;-74
2022/06/26 05:21:31;;;;;;;0.10;0.10;;;;;;;31.62;45.20;100114.56;4995385;28;20041;-74
2022/06/26 05:23:57;;;;;;;0.10;0.10;;;;;;;32.14;44.63;100119.41;4979481;28;20477;-74
2022/06/26 05:26:23;;;;;;;0.10;0.10;;;;;;;31.55;45.13;100110.06;4995329;28;20469;-74
2022/06/26 05:28:49;;;;;;;0.10;0.10;;;;;;;31.69;43.93;100107.53;4995526;28;20034;-73
2022/06/26 05:31:15;;;;;;;0.10;0.10;;;;;;;32.21;42.81;100107.38;4996447;28;20031;-74
2022/06/26 05:33:42;;;;;;;0.10;0.10;;;;;;;32.61;42.58;100109.19;4995951;28;20114;-74
2022/06/26 05:36:08;;;;;;;0.10;0.10;;;;;;;32.59;42.57;100123.28;4996112;28;20029;-74
2022/06/26 05:38:37;;;;;;;0.10;0.10;;;;;;;32.45;42.29;100121.41;4995343;28;20042;-74
2022/06/26 05:41:03;;;;;;;0.10;0.10;;;;;;;32.79;41.76;100117.34;4995323;28;20030;-73
2022/06/26 05:43:29;;;;;;;0.10;0.10;;;;;;;33.41;41.62;100123.28;4994972;28;20334;-73
2022/06/26 05:45:54;;;;;;;0.10;0.10;;;;;;;33.14;41.55;100124.81;4994581;28;20042;-73
2022/06/26 05:48:20;;;;;;;0.10;0.10;;;;;;;32.41;43.46;100120.88;4994887;28;20038;-73
2022/06/26 05:50:48;;;;;;;0.10;0.10;;;;;;;32.33;43.37;100121.34;4995281;28;20030;-73
2022/06/26 05:53:17;;;;;;;0.10;0.10;;;;;;;32.49;42.62;100130.56;4994719;28;20150;-73
2022/06/26 05:55:43;;;;;;;0.10;0.10;;;;;;;33.02;41.56;100123.19;4994794;28;20023;-73
2022/06/26 05:58:09;;;;;;;0.10;0.10;;;;;;;32.94;41.93;100128.69;4995312;28;20030;-73
2022/06/26 06:00:35;;;;;;;0.10;0.10;;;;;;;33.16;41.21;100130.81;4994698;28;20477;-73
2022/06/26 06:03:01;;;;;;;0.10;0.10;;;;;;;33.40;40.44;100138.19;4994593;28;20079;-73
2022/06/26 06:05:26;;;;;;;0.10;0.10;;;;;;;33.01;40.90;100138.91;4996455;28;20022;-73
2022/06/26 06:07:54;;;;;;;0.10;0.10;;;;;;;33.28;40.84;100141.06;4994499;28;20142;-73
2022/06/26 06:10:19;;;;;;;0.10;0.10;;;;;;;33.18;40.40;100142.59;4994890;28;20465;-74
2022/06/26 06:12:49;;;;;;;0.10;0.10;;;;;;;33.12;40.54;100138.94;4994370;28;20034;-73
2022/06/26 06:15:15;;;;;;;0.17;0.17;;;;;;;33.41;40.26;100149.25;4994146;28;20116;-74
2022/06/26 06:17:40;;;;;;;0.10;0.10;;;;;;;33.50;40.72;100148.19;4994426;28;20125;-73
2022/06/26 06:20:15;;;;;;;0.10;0.10;;;;;;;33.83;40.17;100151.06;4993907;28;20508;-74
2022/06/26 06:22:46;;;;;;;0.10;0.10;;;;;;;33.85;39.74;100148.44;4994528;28;20052;-74
2022/06/26 06:25:12;;;;;;;0.10;0.10;;;;;;;34.07;39.73;100143.97;4993607;28;20033;-74
2022/06/26 06:27:38;;;;;;;0.10;0.10;;;;;;;34.19;38.77;100154.19;4995990;28;20448;-74
2022/06/26 06:30:06;;;;;;;0.10;0.10;;;;;;;33.91;40.17;100153.41;4994120;28;20034;-73
2022/06/26 06:32:31;;;;;;;0.10;0.10;;;;;;;33.87;39.06;100148.69;4994845;28;20413;-74
2022/06/26 06:34:57;;;;;;;0.10;0.10;;;;;;;34.10;38.49;100152.38;4995449;28;20038;-74
2022/06/26 06:37:23;;;;;;;0.10;0.10;;;;;;;34.09;39.00;100150.81;4994329;28;20028;-73
2022/06/26 06:39:49;;;;;;;0.10;0.10;;;;;;;34.13;38.30;100153.41;4994260;28;20470;-75
2022/06/26 06:42:14;;;;;;;0.10;0.10;;;;;;;33.73;39.08;100146.88;4994080;28;20508;-74
2022/06/26 06:44:40;;;;;;;0.10;0.10;;;;;;;34.36;36.62;100154.94;4993875;28;20061;-73
2022/06/26 06:47:06;;;;;;;0.10;0.10;;;;;;;34.85;36.82;100155.28;4993843;28;20037;-73
2022/06/26 06:49:31;;;;;;;0.10;0.10;;;;;;;34.51;35.54;100148.06;4994101;28;20129;-73
2022/06/26 06:51:57;;;;;;;0.20;0.20;;;;;;;34.44;35.65;100145.72;4993638;28;20022;-74
2022/06/26 06:54:23;;;;;;;0.10;0.10;;;;;;;34.21;37.44;100134.25;4994099;28;20030;-73
2022/06/26 06:56:48;;;;;;;0.10;0.10;;;;;;;34.71;36.97;100139.06;4994861;28;20393;-74
2022/06/26 06:59:14;;;;;;;0.10;0.10;;;;;;;34.57;36.86;100148.84;4993512;28;20034;-74
2022/06/26 07:01:39;;;;;;;0.10;0.10;;;;;;;34.25;36.56;100142.63;4995280;28;20026;-73
2022/06/26 07:04:07;;;;;;;0.10;0.10;;;;;;;34.24;36.93;100147.59;4994017;28;20424;-73
2022/06/26 07:06:32;;;;;;;0.10;0.10;;;;;;;34.02;37.12;100139.00;4993697;28;20361;-73
2022/06/26 07:08:58;;;;;;;0.10;0.10;;;;;;;34.57;36.22;100143.06;4993652;28;20038;-73
2022/06/26 07:11:24;;;;;;;0.10;0.10;;;;;;;34.76;35.55;100144.03;4993293;28;20608;-74
2022/06/26 07:13:49;;;;;;;0.10;0.10;;;;;;;35.34;33.97;100141.09;4993029;28;20117;-73
2022/06/26 07:16:15;;;;;;;0.10;0.10;;;;;;;35.47;34.19;100134.69;4992895;28;20125;-73
2022/06/26 07:18:41;;;;;;;0.10;0.10;;;;;;;34.80;35.17;100138.75;4996075;28;20081;-73
2022/06/26 07:21:07;;;;;;;0.10;0.10;;;;;;;35.69;34.36;100127.97;4996653;28;20034;-73
2022/06/26 07:23:33;;;;;;;0.10;0.10;;;;;;;35.77;34.25;100131.03;5013862;28;20053;-72
2022/06/26 07:25:59;;;;;;;0.10;0.10;;;;;;;36.06;33.09;100135.22;4996568;28;20113;-74
2022/06/26 07:28:25;;;;;;;0.10;0.10;;;;;;;35.80;32.55;100138.66;4996752;28;20403;-73
2022/06/26 07:30:51;;;;;;;0.10;0.10;;;;;;;35.71;34.19;100131.09;4996060;28;20504;-73
2022/06/26 07:36:01;;;;;;;0.10;0.10;;;;;;;35.78;34.93;100124.69;5013985;28;20120;-73
2022/06/26 07:38:26;;;;;;;0.10;0.10;;;;;;;36.10;34.58;100129.94;4995983;28;20116;-73
2022/06/26 07:40:52;;;;;;;0.10;0.10;;;;;;;35.43;36.17;100114.72;4996246;28;20445;-73
2022/06/26 07:43:18;;;;;;;0.10;0.10;;;;;;;35.34;36.10;100117.94;4996018;28;20429;-73
2022/06/26 07:45:43;;;;;;;0.10;0.10;;;;;;;35.10;36.35;100114.97;4995926;28;20076;-73
2022/06/26 07:48:09;;;;;;;0.10;0.10;;;;;;;35.48;35.25;100112.34;4995619;28;20124;-73
2022/06/26 07:50:35;;;;;;;0.10;0.10;;;;;;;35.20;36.21;100121.97;4995670;28;20095;-73
2022/06/26 07:53:01;;;;;;;0.10;0.10;;;;;;;35.39;35.16;100120.00;5012480;28;20030;-74
2022/06/26 07:55:29;;;;;;;0.10;0.10;;;;;;;35.30;36.24;100117.44;4995777;28;20421;-73
2022/06/26 07:57:54;;;;;;;0.10;0.10;;;;;;;35.66;33.82;100120.34;5013345;28;20026;-74
2022/06/26 08:00:20;;;;;;;0.10;0.10;;;;;;;35.93;33.77;100116.41;4996033;28;20034;-74
2022/06/26 08:02:46;;;;;;;0.10;0.10;;;;;;;36.03;32.93;100121.84;4995578;28;20124;-74
2022/06/26 08:05:14;;;;;;;0.10;0.10;;;;;;;36.51;32.16;100123.19;4995538;28;20034;-74
2022/06/26 08:07:43;;;;;;;0.10;0.10;;;;;;;36.33;32.04;100119.69;4996001;28;20190;-75
2022/06/26 08:10:09;;;;;;;0.10;0.10;;;;;;;36.37;31.25;100120.13;4995311;28;20034;-75
2022/06/26 08:12:35;;;;;;;0.13;0.13;;;;;;;36.54;30.36;100114.19;4995935;28;20152;-73
2022/06/26 08:15:00;;;;;;;0.10;0.10;;;;;;;36.93;30.12;100122.38;4995534;28;20052;-75
2022/06/26 08:17:26;;;;;;;0.10;0.10;;;;;;;37.95;28.86;100119.41;4995828;28;20061;-75
2022/06/26 08:19:54;;;;;;;0.10;0.10;;;;;;;37.70;28.09;100121.69;4995219;28;20065;-75
2022/06/26 08:22:19;;;;;;;0.10;0.10;;;;;;;37.89;27.67;100115.84;4995562;28;20092;-74
2022/06/26 08:24:45;;;;;;;0.10;0.10;;;;;;;37.97;27.08;100116.72;5013215;28;20033;-74
2022/06/26 08:27:11;;;;;;;0.10;0.10;;;;;;;37.20;27.69;100125.41;4995481;28;20037;-75
2022/06/26 08:29:37;;;;;;;0.10;0.10;;;;;;;37.35;26.67;100113.31;5012851;28;20040;-75
2022/06/26 08:32:04;;;;;;;0.10;0.10;;;;;;;37.61;26.65;100118.44;4995393;28;20076;-75
2022/06/26 08:34:33;;;;;;;0.10;0.10;;;;;;;37.98;26.88;100118.31;4995456;28;20496;-75
2022/06/26 08:36:58;;;;;;;0.10;0.10;;;;;;;37.83;26.39;100115.16;5013156;28;20030;-75
2022/06/26 08:39:24;;;;;;;0.10;0.10;;;;;;;38.61;25.59;100121.53;4995220;28;20184;-74
2022/06/26 08:41:53;;;;;;;0.10;0.10;;;;;;;38.68;25.10;100106.34;5012909;28;20065;-75
2022/06/26 08:44:19;;;;;;;0.10;0.10;;;;;;;39.06;22.49;100132.22;4995557;28;20380;-75
2022/06/26 08:46:46;;;;;;;0.10;0.10;;;;;;;39.48;23.28;100114.84;4995643;28;20030;-74
2022/06/26 08:49:18;;;;;;;0.10;0.10;;;;;;;38.95;23.40;100121.63;4997832;28;20132;-74
2022/06/26 08:51:47;;;;;;;0.10;0.10;;;;;;;38.37;24.30;100125.50;5016179;28;20025;-74
2022/06/26 08:54:16;;;;;;;0.10;0.10;;;;;;;38.13;24.00;100123.56;4999082;28;20464;-75
2022/06/26 08:56:45;;;;;;;0.10;0.10;;;;;;;38.18;23.35;100122.66;5016536;28;20033;-74
2022/06/26 08:59:13;;;;;;;0.10;0.10;;;;;;;38.08;22.90;100123.66;4999119;28;20061;-74
2022/06/26 09:01:40;;;;;;;0.10;0.10;;;;;;;37.86;22.92;100127.78;5016196;28;20052;-73
2022/06/26 09:04:10;;;;;;;0.10;0.10;;;;;;;38.42;22.31;100118.78;4998582;28;20050;-77
2022/06/26 09:06:36;;;;;;;0.10;0.10;;;;;;;38.54;22.16;100125.16;4998283;28;20038;-74
2022/06/26 09:09:13;;;;;;;0.10;0.10;;;;;;;38.39;21.93;100124.94;5016275;28;20096;-74
2022/06/26 09:11:40;;;;;;;0.10;0.10;;;;;;;38.82;21.90;100127.47;4998950;28;20017;-74
2022/06/26 09:14:05;;;;;;;0.10;0.10;;;;;;;38.60;21.63;100142.47;5016050;28;20038;-74
2022/06/26 09:16:32;;;;;;;0.10;0.10;;;;;;;38.48;22.22;100139.00;4998812;28;20017;-74
2022/06/26 09:19:09;;;;;;;0.10;0.10;;;;;;;39.19;21.40;100140.13;4998259;28;20054;-74
2022/06/26 09:21:38;;;;;;;0.10;0.10;;;;;;;39.75;20.06;100135.88;4998475;28;20029;-74
2022/06/26 09:24:09;;;;;;;0.10;0.10;;;;;;;40.10;19.18;100133.63;4998690;28;20048;-75
2022/06/26 09:26:34;;;;;;;0.10;0.10;;;;;;;38.57;19.93;100141.47;4998283;28;20052;-74
2022/06/26 09:29:19;;;;;;;0.10;0.10;;;;;;;38.36;19.48;100123.94;4998645;28;20034;-73
2022/06/26 09:31:45;;;;;;;0.10;0.10;;;;;;;38.81;19.05;100134.63;5016169;28;20033;-73
2022/06/26 09:34:26;;;;;;;0.10;0.10;;;;;;;38.61;19.01;100130.25;4998353;28;20034;-75
2022/06/26 09:37:03;;;;;;;0.10;0.10;;;;;;;39.32;19.33;100128.47;4998278;28;20116;-76
2022/06/26 09:39:34;;;;;;;0.10;0.10;;;;;;;40.40;18.36;100119.25;4982135;28;20042;-74
2022/06/26 09:42:14;;;;;;;0.10;0.10;;;;;;;41.09;17.74;100120.38;4998348;28;20034;-75
2022/06/26 09:44:48;;;;;;;0.10;0.10;;;;;;;41.05;18.36;100125.81;5016246;28;20115;-74
2022/06/26 09:47:42;;;;;;;0.10;0.10;;;;;;;39.55;18.70;100120.72;5016367;28;20431;-74
2022/06/26 09:50:09;;;;;;;0.10;0.10;;;;;;;39.40;19.04;100117.66;4998117;28;20041;-75
2022/06/26 09:52:35;;;;;;;0.10;0.10;;;;;;;38.67;20.39;100124.34;4997579;28;20040;-74
2022/06/26 09:55:02;;;;;;;0.10;0.10;;;;;;;38.41;20.16;100120.13;4997745;28;20030;-75
2022/06/26 09:57:32;;;;;;;0.10;0.10;;;;;;;37.77;20.24;100111.56;4998011;28;20041;-74
2022/06/26 09:59:58;;;;;;;0.10;0.10;;;;;;;37.96;19.17;100115.16;4997030;28;20030;-73
2022/06/26 10:07:59;;;;;;;0.10;0.10;;;;;;;39.64;17.94;100115.78;5015666;28;20104;-73
2022/06/26 10:10:31;;;;;;;0.10;0.10;;;;;;;40.15;17.01;100112.31;4998062;28;20160;-74
2022/06/26 10:13:00;;;;;;;0.10;0.10;;;;;;;39.73;17.92;100118.19;4997840;28;20543;-74
2022/06/26 10:15:33;;;;;;;0.10;0.10;;;;;;;40.16;17.21;100119.69;4997478;28;20057;-73
2022/06/26 10:18:17;;;;;;;0.10;0.10;;;;;;;39.71;17.33;100127.50;4997588;28;20032;-73
2022/06/26 10:20:44;;;;;;;0.10;0.10;;;;;;;39.76;17.51;100123.66;4994065;28;20108;-74
2022/06/26 10:23:09;;;;;;;0.10;0.10;;;;;;;39.00;17.86;100109.09;4979261;28;20444;-72
2022/06/26 10:25:35;;;;;;;0.10;0.10;;;;;;;38.31;18.75;100121.94;4994160;28;20122;-73
2022/06/26 10:28:03;;;;;;;0.10;0.10;;;;;;;39.12;19.30;100129.19;4994915;28;20034;-73
2022/06/26 10:30:30;;;;;;;0.10;0.10;;;;;;;38.98;19.28;100120.47;4994030;28;20030;-74
2022/06/26 10:33:16;;;;;;;0.10;0.10;;;;;;;38.51;19.97;100120.44;4994836;28;20026;-74
2022/06/26 10:35:45;;;;;;;0.10;0.10;;;;;;;38.89;20.58;100109.34;4995095;28;20049;-73
2022/06/26 10:38:18;;;;;;;0.10;0.10;;;;;;;39.89;19.67;100116.16;4994153;28;20579;-73
2022/06/26 10:43:42;;;;;;;0.10;0.10;;;;;;;39.59;20.31;100102.91;4995596;28;20405;-74
2022/06/26 10:46:11;;;;;;;0.10;0.10;;;;;;;39.21;20.62;100102.56;4995313;28;20042;-74
2022/06/26 10:48:37;;;;;;;0.10;0.10;;;;;;;39.83;19.49;100104.66;4993832;28;20122;-74
2022/06/26 10:51:02;;;;;;;0.10;0.10;;;;;;;40.50;18.93;100111.56;4993982;28;20041;-74
2022/06/26 10:53:49;;;;;;;0.10;0.10;;;;;;;39.65;20.03;100111.53;4993813;28;20035;-74
2022/06/26 10:56:14;;;;;;;0.10;0.10;;;;;;;40.19;19.15;100112.72;4993914;28;20034;-74
2022/06/26 10:58:45;;;;;;;0.10;0.10;;;;;;;39.95;19.62;100088.47;4995256;28;20393;-74
2022/06/26 11:01:12;;;;;;;0.10;0.10;;;;;;;40.72;18.51;100106.44;4994748;28;20041;-75
2022/06/26 11:03:39;;;;;;;0.10;0.10;;;;;;;40.72;19.29;100103.50;4994997;28;20057;-74
2022/06/26 11:06:10;;;;;;;0.10;0.10;;;;;;;39.91;19.75;100087.28;4994218;28;20326;-74
2022/06/26 11:08:36;;;;;;;0.10;0.10;;;;;;;39.90;19.79;100103.16;4994666;28;20093;-76
2022/06/26 11:11:15;;;;;;;0.10;0.10;;;;;;;39.75;19.44;100098.03;4993659;28;20038;-74
2022/06/26 11:13:48;;;;;;;0.10;0.10;;;;;;;39.87;19.01;100086.84;4995280;28;20041;-72
2022/06/26 11:16:14;;;;;;;0.10;0.10;;;;;;;39.27;20.16;100098.16;4993554;28;20026;-72
2022/06/26 11:18:39;;;;;;;0.10;0.10;;;;;;;38.86;20.11;100095.91;4996482;28;20058;-73
2022/06/26 11:21:05;;;;;;;0.10;0.10;;;;;;;39.59;19.32;100096.31;4996329;28;20072;-73
2022/06/26 11:23:36;;;;;;;0.10;0.10;;;;;;;39.54;19.35;100100.91;4996557;28;20034;-74
2022/06/26 11:26:05;;;;;;;0.10;0.10;;;;;;;39.94;18.85;100098.53;5013937;28;20022;-75
2022/06/26 11:28:39;;;;;;;0.10;0.10;;;;;;;39.84;19.26;100106.22;5014328;28;20030;-75
2022/06/26 11:31:07;;;;;;;0.10;0.10;;;;;;;40.20;18.79;100096.81;4996744;28;20439;-75
2022/06/26 11:33:35;;;;;;;0.10;0.10;;;;;;;39.95;19.69;100103.03;5014158;28;20026;-76
2022/06/26 11:36:04;;;;;;;0.10;0.10;;;;;;;39.56;19.59;100087.34;4996704;28;20030;-75
2022/06/26 11:38:30;;;;;;;0.10;0.10;;;;;;;40.01;18.49;100089.09;4981190;28;20026;-76
2022/06/26 11:41:01;;;;;;;0.10;0.10;;;;;;;39.65;20.07;100082.41;5014563;28;20472;-76
2022/06/26 11:43:27;;;;;;;0.10;0.10;;;;;;;39.83;19.70;100092.25;4996279;28;20105;-75